createdAt,value
2023-03-20T00:01:38.449Z,18.90
2023-03-20T00:04:14.647Z,19.48
2023-03-20T00:06:50.241Z,13.07
2023-03-20T00:09:26.799Z,15.82
2023-03-20T00:12:02.826Z,19.20
2023-03-20T00:14:37.736Z,16.75
2023-03-20T00:17:18.350Z,17.88
2023-03-20T00:19:53.913Z,15.73
2023-03-20T00:22:29.565Z,17.08
2023-03-20T00:25:05.913Z,17.58
2023-03-20T00:27:40.913Z,15.40
2023-03-20T00:30:22.525Z,14.07
2023-03-20T00:32:58.077Z,15.85
2023-03-20T00:35:33.537Z,15.02
2023-03-20T00:38:10.271Z,12.80
2023-03-20T00:40:45.970Z,14.32
2023-03-20T00:43:21.660Z,12.93
2023-03-20T00:45:57.373Z,12.90
2023-03-20T00:48:33.762Z,12.95
2023-03-20T04:52:59.939Z,14.73
2023-03-20T04:59:03.724Z,13.65
2023-03-20T05:10:38.136Z,18.83
2023-03-20T05:18:56.911Z,13.52
2023-03-20T05:21:24.000Z,12.85
2023-03-20T05:23:57.793Z,12.97
2023-03-20T05:26:25.493Z,11.93
2023-03-20T05:29:06.249Z,13.82
2023-03-20T05:31:44.043Z,14.45
2023-03-20T05:34:13.329Z,12.23
2023-03-20T05:36:55.918Z,12.63
2023-03-20T05:39:31.128Z,12.13
2023-03-20T05:42:11.373Z,13.32
2023-03-20T05:44:46.132Z,14.93
2023-03-20T05:47:34.824Z,12.85
2023-03-20T05:50:16.075Z,17.80
2023-03-20T06:02:48.160Z,13.73
2023-03-20T06:05:15.523Z,12.63
2023-03-20T06:07:52.989Z,10.65
2023-03-20T06:10:31.277Z,11.55
2023-03-20T06:13:08.500Z,10.75
2023-03-20T06:15:39.726Z,11.77
2023-03-20T06:18:19.737Z,15.07
2023-03-20T06:20:58.829Z,11.60
2023-03-20T06:23:36.462Z,12.82
2023-03-20T06:26:12.119Z,11.95
2023-03-20T06:28:55.091Z,12.13
2023-03-20T06:31:32.424Z,9.85
2023-03-20T06:34:10.673Z,11.15
2023-03-20T06:36:46.310Z,10.25
2023-03-20T06:39:22.014Z,10.27
2023-03-20T06:45:00.476Z,10.43
2023-03-20T06:54:23.365Z,8.77
2023-03-20T06:56:59.191Z,9.25
2023-03-20T07:02:30.015Z,22.58
2023-03-20T07:14:17.183Z,9.80
2023-03-20T07:19:52.401Z,10.63
2023-03-20T07:23:07.275Z,10.05
2023-03-20T07:25:44.932Z,11.55
2023-03-20T07:28:26.400Z,11.88
2023-03-20T07:31:27.084Z,12.32
2023-03-20T07:34:03.140Z,10.40
2023-03-20T07:36:42.891Z,11.75
2023-03-20T07:39:18.159Z,11.02
2023-03-20T07:42:21.433Z,13.60
2023-03-20T07:44:57.432Z,11.93
2023-03-20T07:47:33.488Z,12.70
2023-03-20T07:50:21.903Z,11.88
2023-03-20T07:52:56.196Z,14.55
2023-03-20T07:55:23.517Z,16.25
2023-03-20T07:57:51.275Z,19.40
2023-03-20T08:02:58.073Z,13.23
2023-03-20T08:06:06.890Z,11.73
2023-03-20T08:08:34.715Z,16.27
2023-03-20T08:11:03.136Z,11.85
2023-03-20T08:13:30.594Z,14.18
2023-03-20T08:15:58.475Z,15.70
2023-03-20T08:18:42.755Z,12.73
2023-03-20T08:26:51.981Z,14.73
2023-03-20T08:32:10.511Z,13.15
2023-03-20T08:34:37.987Z,10.07
2023-03-20T08:37:14.418Z,13.35
2023-03-20T08:39:49.116Z,13.75
2023-03-20T08:42:16.419Z,13.93
2023-03-20T08:44:44.100Z,12.45
2023-03-20T08:47:12.327Z,12.32
2023-03-20T08:49:49.282Z,11.13
2023-03-20T08:52:16.553Z,13.00
2023-03-20T08:54:44.362Z,10.68
2023-03-20T08:57:18.488Z,11.43
2023-03-20T08:59:53.110Z,10.10
2023-03-20T09:02:28.109Z,11.00
2023-03-20T09:04:59.630Z,10.32
2023-03-20T09:07:33.166Z,9.00
2023-03-20T09:10:20.411Z,10.63
2023-03-20T09:12:54.309Z,10.90
2023-03-20T09:15:37.738Z,11.38
2023-03-20T09:21:07.422Z,12.20
2023-03-20T09:26:55.781Z,8.70
2023-03-20T09:29:59.020Z,8.48
2023-03-20T09:35:22.772Z,8.10
2023-03-20T09:38:01.291Z,10.02
2023-03-20T09:40:57.240Z,8.57
2023-03-20T09:49:19.855Z,8.23
2023-03-20T09:52:26.618Z,6.20
2023-03-20T09:55:23.799Z,8.15
2023-03-20T09:58:28.496Z,7.03
2023-03-20T10:04:26.328Z,4.30
2023-03-20T10:07:00.230Z,7.53
2023-03-20T10:09:43.510Z,5.10
2023-03-20T10:12:18.335Z,7.43
2023-03-20T10:14:57.404Z,7.95
2023-03-20T10:27:33.113Z,3.72
2023-03-20T10:30:47.252Z,6.15
2023-03-20T10:33:27.202Z,8.07
2023-03-20T10:36:17.759Z,7.80
2023-03-20T10:39:23.264Z,7.13
2023-03-20T10:42:02.411Z,5.40
2023-03-20T10:45:14.811Z,7.43
2023-03-20T10:47:50.518Z,5.57
2023-03-20T10:50:42.790Z,8.20
2023-03-20T11:04:33.513Z,4.97
2023-03-20T11:16:39.100Z,4.88
2023-03-20T11:19:15.926Z,5.30
2023-03-20T11:31:44.173Z,7.50
2023-03-20T11:34:30.164Z,5.85
2023-03-20T11:40:19.681Z,7.35
2023-03-20T11:42:57.975Z,5.90
2023-03-20T11:46:08.097Z,5.90
2023-03-20T11:48:46.346Z,4.25
2023-03-20T12:00:35.034Z,6.30
2023-03-20T12:09:45.590Z,7.20
2023-03-20T12:12:34.659Z,5.30
2023-03-20T12:15:15.181Z,8.45
2023-03-20T12:21:09.957Z,5.05
2023-03-20T12:27:20.781Z,6.95
2023-03-20T12:30:06.969Z,6.22
2023-03-20T12:33:08.394Z,6.30
2023-03-20T12:41:28.276Z,3.95
2023-03-20T12:44:16.098Z,6.07
2023-03-20T12:46:50.437Z,4.40
2023-03-20T12:49:38.707Z,3.67
2023-03-20T12:52:12.338Z,4.40
2023-03-20T12:55:09.996Z,6.40
2023-03-20T12:57:51.510Z,6.57
2023-03-20T13:00:36.851Z,6.30
2023-03-20T13:03:14.598Z,4.93
2023-03-20T13:06:21.692Z,7.10
2023-03-20T13:08:57.440Z,4.18
2023-03-20T13:12:08.690Z,4.55
2023-03-20T13:14:44.157Z,3.63
2023-03-20T13:17:35.191Z,4.95
2023-03-20T13:20:10.446Z,6.20
2023-03-20T13:23:03.855Z,3.22
2023-03-20T13:25:53.907Z,5.50
2023-03-20T13:28:46.237Z,4.63
2023-03-20T13:31:21.474Z,5.15
2023-03-20T13:34:04.461Z,4.63
2023-03-20T13:36:39.524Z,5.88
2023-03-20T13:39:25.523Z,5.80
2023-03-20T13:41:59.404Z,5.03
2023-03-20T13:44:32.455Z,5.60
2023-03-20T13:47:28.910Z,6.03
2023-03-20T13:50:16.463Z,7.15
2023-03-20T13:52:56.391Z,4.93
2023-03-20T13:55:52.401Z,4.57
2023-03-20T14:01:38.964Z,5.35
2023-03-20T14:04:18.095Z,7.47
2023-03-20T14:06:55.875Z,5.45
2023-03-20T14:09:35.963Z,8.77
2023-03-20T14:12:13.527Z,4.53
2023-03-20T14:14:52.499Z,7.50
2023-03-20T14:17:28.862Z,6.38
2023-03-20T14:20:14.759Z,5.68
2023-03-20T14:22:49.905Z,6.22
2023-03-20T14:25:26.007Z,5.75
2023-03-20T14:28:01.428Z,5.85
2023-03-20T14:30:37.502Z,6.60
2023-03-20T14:33:12.088Z,6.35
2023-03-20T14:35:50.057Z,6.72
2023-03-20T14:38:25.961Z,7.93
2023-03-20T14:41:32.008Z,5.45
2023-03-20T14:44:07.562Z,5.70
2023-03-20T14:46:47.103Z,7.85
2023-03-20T14:49:37.924Z,5.95
2023-03-20T14:52:15.388Z,9.20
2023-03-20T14:54:55.215Z,5.80
2023-03-20T14:57:30.443Z,8.65
2023-03-20T15:00:05.310Z,8.48
2023-03-20T15:02:39.635Z,8.55
2023-03-20T15:05:32.474Z,7.75
2023-03-20T15:08:07.989Z,6.05
2023-03-20T15:10:48.083Z,6.00
2023-03-20T15:13:24.582Z,10.52
2023-03-20T18:32:37.321Z,8.65
2023-03-20T18:44:30.230Z,6.80
2023-03-20T18:47:10.928Z,7.50
2023-03-20T18:49:44.706Z,5.10
2023-03-20T18:55:29.974Z,5.47
2023-03-20T18:58:06.492Z,7.40
2023-03-20T19:00:40.732Z,5.22
2023-03-20T19:03:15.816Z,11.35
2023-03-20T19:05:53.111Z,7.57
2023-03-20T19:08:28.500Z,4.95
2023-03-20T19:11:05.023Z,5.15
2023-03-20T19:13:44.218Z,9.00
2023-03-20T19:16:20.344Z,6.35
2023-03-20T19:18:54.574Z,8.73
2023-03-20T19:21:33.252Z,6.03
2023-03-20T19:24:07.561Z,6.03
2023-03-20T19:26:43.507Z,4.60
2023-03-20T19:29:18.527Z,7.97
2023-03-20T19:31:54.320Z,8.10
2023-03-20T19:35:23.038Z,8.68
2023-03-20T19:37:25.451Z,7.13
2023-03-20T19:40:00.305Z,5.13
2023-03-20T19:42:59.062Z,5.93
2023-03-20T19:48:15.853Z,5.75
2023-03-20T19:50:53.666Z,9.27
2023-03-20T19:53:30.427Z,9.10
2023-03-20T19:56:06.309Z,4.60
2023-03-20T19:58:43.374Z,9.10
2023-03-20T20:01:18.993Z,10.35
2023-03-20T20:03:55.512Z,5.03
2023-03-20T20:06:32.826Z,10.38
2023-03-20T20:09:08.293Z,7.00
2023-03-20T20:11:42.524Z,6.80
2023-03-20T20:14:23.588Z,9.75
2023-03-20T20:19:42.335Z,8.52
2023-03-20T20:22:25.303Z,6.47
2023-03-20T20:25:02.334Z,8.50
2023-03-20T20:27:36.476Z,8.13
2023-03-20T20:30:13.757Z,5.50
2023-03-20T20:32:49.714Z,7.40
2023-03-20T20:35:48.901Z,6.10
2023-03-20T20:38:48.911Z,7.40
2023-03-20T20:41:23.572Z,6.70
2023-03-20T20:44:16.061Z,11.23
2023-03-20T20:46:51.754Z,7.45
2023-03-20T20:49:29.319Z,6.20
2023-03-20T20:52:10.597Z,7.90
2023-03-20T20:54:46.435Z,9.85
2023-03-20T20:57:21.650Z,7.68
2023-03-20T20:59:59.912Z,8.27
2023-03-20T21:02:39.876Z,8.35
2023-03-20T21:05:19.597Z,8.57
2023-03-20T21:07:55.038Z,5.75
2023-03-20T21:10:31.597Z,12.40
2023-03-20T21:13:08.382Z,10.10
2023-03-20T21:15:43.505Z,8.15
2023-03-20T21:18:18.969Z,6.90
2023-03-20T21:20:55.302Z,9.32
2023-03-20T21:23:29.814Z,5.93
2023-03-20T21:26:10.270Z,7.80
2023-03-20T21:28:44.422Z,8.07
2023-03-20T21:31:25.886Z,10.03
2023-03-20T21:34:01.341Z,9.10
2023-03-20T21:36:36.378Z,11.10
2023-03-20T21:39:12.438Z,9.63
2023-03-20T21:41:47.039Z,11.30
2023-03-20T21:45:08.856Z,7.75
2023-03-20T21:48:04.242Z,7.90
2023-03-20T21:50:46.751Z,9.00
2023-03-20T21:53:52.327Z,7.53
2023-03-20T22:02:09.823Z,9.63
2023-03-20T22:05:34.860Z,12.07
2023-03-20T22:08:49.563Z,8.60
2023-03-20T22:23:21.660Z,10.20
2023-03-20T22:25:53.093Z,8.48
2023-03-20T22:32:02.442Z,11.65
2023-03-20T22:40:36.090Z,6.72
2023-03-20T22:43:26.498Z,8.05
2023-03-20T22:46:05.595Z,7.75
2023-03-20T22:48:46.655Z,10.38
2023-03-20T22:51:28.666Z,11.35
2023-03-20T22:54:10.669Z,10.85
2023-03-20T22:56:51.132Z,9.65
2023-03-20T22:59:25.346Z,9.30
2023-03-20T23:01:59.381Z,8.70
2023-03-20T23:07:09.501Z,12.63
2023-03-20T23:09:44.454Z,11.40
2023-03-20T23:12:20.472Z,7.38
2023-03-20T23:14:55.652Z,10.35
2023-03-20T23:17:41.452Z,8.60
2023-03-20T23:20:21.813Z,13.18
2023-03-20T23:22:55.255Z,14.20
2023-03-20T23:25:39.169Z,10.13
2023-03-20T23:28:15.346Z,11.63
2023-03-20T23:30:59.855Z,9.27
2023-03-20T23:33:48.023Z,12.68
2023-03-20T23:36:35.350Z,14.05
2023-03-20T23:39:13.782Z,11.27
2023-03-20T23:42:23.846Z,9.30
2023-03-20T23:44:56.394Z,10.90
2023-03-20T23:47:49.656Z,7.70
2023-03-20T23:50:30.387Z,7.97
2023-03-20T23:53:20.744Z,8.60
2023-03-20T23:58:32.443Z,10.45
